North Vidor, Texas
Current Conditions -  °F | °C
As of 8:35 PM on Thursday 20 Nov 2014 (Local Time) from KBMT Reporting Station
Overcast Overcast  
Wind Chill: 62°   Ceiling: 9000
Heat Index: 62°   Visibility: 10mi
Dew Point: 56°   Wind: 10mph
Humidity: 80%   Direction: 120°ESE
Pressure: 30.14"   Gusts: NA
Location:  30.1707°N, 94.0082°W
Report Text: KBMT 210235Z AUTO 12009KT 10SM SCT075 OVC090 17/13 A3014 RMK AO2 T01660132
Loading
Personal Weather Stations






























Interactive Weather Map New forecast layout! Learn more

10-Day Weather Forecast

Advertisements
Track Severe Weather on mobile